KOVE

Details ICAO KOVE
Name Oroville Muni
Region United States
Timezone America/Los_Angeles (UTC-7.0)
Plans Departing 2
Arriving 4
Stats Elevation 192 ft / 59 m (AMSL)
Location 39.488531° -121.620578°
Runways 2
Magnetic Variation 13.705° E
Sunrise 2018-05-22 12:48:13 UTC / 2018-05-22 05:48:13 Local
Sunset 2018-05-23 03:20:59 UTC / 2018-05-22 20:20:59 Local
Advertisement - Login to hide

Runways

ID Width Length Bearing (true) Bearing (mag) Surface Threshold Offset Overrun Length
01 100 ft / 30 m 6,024 ft / 1,836 m 32.87° 19.16° Asphalt 0 ft / 0 m 100 ft / 30 m
12 100 ft / 30 m 3,541 ft / 1,079 m 143.87° 130.16° Asphalt 0 ft / 0 m 500 ft / 152 m
19 100 ft / 30 m 6,024 ft / 1,836 m 212.88° 199.17° Asphalt 0 ft / 0 m 1,600 ft / 488 m
30 100 ft / 30 m 3,541 ft / 1,079 m 323.88° 310.17° Asphalt 0 ft / 0 m 0 ft / 0 m

Map

Weather


0- 5 10 15 20 25 30 35+ Temperature / ° C

Clouds and Precipitation
Forecast for 2018-05-22 18:00 UTC. Updated 3 hours ago

Ground ~20,000 ft ~40,000 ft Winds

METAR

KOVE 221953Z AUTO 19006KT 10SM CLR 26/13 A2983 RMK AO2 SLP102 T02560133

TAF

Not found

Frequencies

Recorded 121.42 MHz ASOS
Approach 125.40 MHz NORCAL APP/DEP
Unicom 122.80 MHz CTAF/UNICOM
Warning: Do not use this data for real-world aviation or navigation. No guarantee of current accuracy is given.